sensor_id;sensor_type;location;lat;lon;timestamp;temperature;humidity
24164;DHT22;12319;49.204;8.116;2023-03-23T00:01:06;15.50;62.20
24164;DHT22;12319;49.204;8.116;2023-03-23T00:03:32;15.50;62.30
24164;DHT22;12319;49.204;8.116;2023-03-23T00:05:59;15.50;63.10
24164;DHT22;12319;49.204;8.116;2023-03-23T00:08:38;15.50;62.90
24164;DHT22;12319;49.204;8.116;2023-03-23T00:11:11;15.40;62.70
24164;DHT22;12319;49.204;8.116;2023-03-23T00:13:40;15.30;62.60
24164;DHT22;12319;49.204;8.116;2023-03-23T00:16:06;15.30;63.50
24164;DHT22;12319;49.204;8.116;2023-03-23T00:18:50;15.20;63.40
24164;DHT22;12319;49.204;8.116;2023-03-23T00:21:20;15.20;63.40
24164;DHT22;12319;49.204;8.116;2023-03-23T00:23:53;15.20;63.40
24164;DHT22;12319;49.204;8.116;2023-03-23T00:26:18;15.20;63.80
24164;DHT22;12319;49.204;8.116;2023-03-23T00:28:45;15.10;63.90
24164;DHT22;12319;49.204;8.116;2023-03-23T00:31:12;15.10;64.10
24164;DHT22;12319;49.204;8.116;2023-03-23T00:33:39;15.10;64.20
24164;DHT22;12319;49.204;8.116;2023-03-23T00:36:09;15.10;64.50
24164;DHT22;12319;49.204;8.116;2023-03-23T00:38:36;15.10;64.40
24164;DHT22;12319;49.204;8.116;2023-03-23T00:41:02;15.00;65.10
24164;DHT22;12319;49.204;8.116;2023-03-23T00:43:29;15.00;65.20
24164;DHT22;12319;49.204;8.116;2023-03-23T00:45:56;15.00;65.40
24164;DHT22;12319;49.204;8.116;2023-03-23T00:48:23;14.90;65.20
24164;DHT22;12319;49.204;8.116;2023-03-23T00:50:50;14.90;65.10
24164;DHT22;12319;49.204;8.116;2023-03-23T00:53:17;14.90;65.10
24164;DHT22;12319;49.204;8.116;2023-03-23T00:55:44;14.90;65.40
24164;DHT22;12319;49.204;8.116;2023-03-23T00:58:11;14.90;65.10
24164;DHT22;12319;49.204;8.116;2023-03-23T01:00:38;14.90;65.20
24164;DHT22;12319;49.204;8.116;2023-03-23T01:03:04;14.90;65.10
24164;DHT22;12319;49.204;8.116;2023-03-23T01:05:33;14.90;65.10
24164;DHT22;12319;49.204;8.116;2023-03-23T01:07:59;14.80;65.30
24164;DHT22;12319;49.204;8.116;2023-03-23T01:10:25;14.80;65.40
24164;DHT22;12319;49.204;8.116;2023-03-23T01:12:54;14.80;65.40
24164;DHT22;12319;49.204;8.116;2023-03-23T01:15:20;14.80;65.00
24164;DHT22;12319;49.204;8.116;2023-03-23T01:17:46;14.80;65.40
24164;DHT22;12319;49.204;8.116;2023-03-23T01:20:13;14.80;65.40
24164;DHT22;12319;49.204;8.116;2023-03-23T01:22:41;14.80;65.30
24164;DHT22;12319;49.204;8.116;2023-03-23T01:25:07;14.80;65.30
24164;DHT22;12319;49.204;8.116;2023-03-23T01:27:33;14.80;65.30
24164;DHT22;12319;49.204;8.116;2023-03-23T01:29:59;14.80;65.30
24164;DHT22;12319;49.204;8.116;2023-03-23T01:32:24;14.90;65.50
24164;DHT22;12319;49.204;8.116;2023-03-23T01:34:50;14.90;65.40
24164;DHT22;12319;49.204;8.116;2023-03-23T01:37:15;14.80;65.40
24164;DHT22;12319;49.204;8.116;2023-03-23T01:39:42;14.80;65.40
24164;DHT22;12319;49.204;8.116;2023-03-23T01:42:09;14.80;65.40
24164;DHT22;12319;49.204;8.116;2023-03-23T01:47:00;14.80;65.00
24164;DHT22;12319;49.204;8.116;2023-03-23T01:49:46;14.90;65.10
24164;DHT22;12319;49.204;8.116;2023-03-23T01:52:20;14.80;65.00
24164;DHT22;12319;49.204;8.116;2023-03-23T01:54:49;14.90;65.00
24164;DHT22;12319;49.204;8.116;2023-03-23T01:57:18;14.90;64.90
24164;DHT22;12319;49.204;8.116;2023-03-23T01:59:46;14.90;64.90
24164;DHT22;12319;49.204;8.116;2023-03-23T02:02:14;14.90;64.80
24164;DHT22;12319;49.204;8.116;2023-03-23T02:04:40;14.90;64.70
24164;DHT22;12319;49.204;8.116;2023-03-23T02:07:07;14.90;64.90
24164;DHT22;12319;49.204;8.116;2023-03-23T02:09:45;15.00;64.90
24164;DHT22;12319;49.204;8.116;2023-03-23T02:12:10;15.00;64.80
24164;DHT22;12319;49.204;8.116;2023-03-23T02:14:36;15.00;64.90
24164;DHT22;12319;49.204;8.116;2023-03-23T02:17:09;15.00;65.00
24164;DHT22;12319;49.204;8.116;2023-03-23T02:25:43;15.00;65.20
24164;DHT22;12319;49.204;8.116;2023-03-23T02:31:11;15.00;65.20
24164;DHT22;12319;49.204;8.116;2023-03-23T02:34:07;15.00;65.20
24164;DHT22;12319;49.204;8.116;2023-03-23T02:36:40;14.90;65.10
24164;DHT22;12319;49.204;8.116;2023-03-23T02:39:23;15.00;65.20
24164;DHT22;12319;49.204;8.116;2023-03-23T02:41:57;15.00;65.50
24164;DHT22;12319;49.204;8.116;2023-03-23T02:44:24;15.00;65.60
24164;DHT22;12319;49.204;8.116;2023-03-23T02:46:56;14.90;65.50
24164;DHT22;12319;49.204;8.116;2023-03-23T02:49:25;15.00;65.60
24164;DHT22;12319;49.204;8.116;2023-03-23T02:51:53;14.90;65.50
24164;DHT22;12319;49.204;8.116;2023-03-23T02:54:20;14.90;65.40
24164;DHT22;12319;49.204;8.116;2023-03-23T02:56:48;15.00;65.40
24164;DHT22;12319;49.204;8.116;2023-03-23T02:59:14;14.90;65.50
24164;DHT22;12319;49.204;8.116;2023-03-23T03:04:14;15.00;65.50
24164;DHT22;12319;49.204;8.116;2023-03-23T03:12:09;15.00;65.60
24164;DHT22;12319;49.204;8.116;2023-03-23T03:14:48;15.00;65.50
24164;DHT22;12319;49.204;8.116;2023-03-23T03:17:25;15.00;65.40
24164;DHT22;12319;49.204;8.116;2023-03-23T03:19:56;15.00;65.70
24164;DHT22;12319;49.204;8.116;2023-03-23T03:22:23;15.10;65.60
24164;DHT22;12319;49.204;8.116;2023-03-23T03:24:55;15.00;65.60
24164;DHT22;12319;49.204;8.116;2023-03-23T03:27:22;15.00;65.90
24164;DHT22;12319;49.204;8.116;2023-03-23T03:29:53;15.00;66.10
24164;DHT22;12319;49.204;8.116;2023-03-23T03:32:24;15.00;66.00
24164;DHT22;12319;49.204;8.116;2023-03-23T03:34:51;15.00;66.30
24164;DHT22;12319;49.204;8.116;2023-03-23T03:37:18;15.00;66.10
24164;DHT22;12319;49.204;8.116;2023-03-23T03:39:44;15.00;66.80
24164;DHT22;12319;49.204;8.116;2023-03-23T03:42:10;15.00;66.40
24164;DHT22;12319;49.204;8.116;2023-03-23T03:44:35;15.00;66.30
24164;DHT22;12319;49.204;8.116;2023-03-23T03:47:01;15.00;66.20
24164;DHT22;12319;49.204;8.116;2023-03-23T03:49:26;15.00;66.30
24164;DHT22;12319;49.204;8.116;2023-03-23T03:51:52;15.00;66.40
24164;DHT22;12319;49.204;8.116;2023-03-23T03:54:17;14.90;66.80
24164;DHT22;12319;49.204;8.116;2023-03-23T03:56:43;15.00;66.40
24164;DHT22;12319;49.204;8.116;2023-03-23T03:59:11;15.00;66.50
24164;DHT22;12319;49.204;8.116;2023-03-23T04:01:38;15.00;66.50
24164;DHT22;12319;49.204;8.116;2023-03-23T04:04:05;15.00;66.30
24164;DHT22;12319;49.204;8.116;2023-03-23T04:06:32;15.00;66.40
24164;DHT22;12319;49.204;8.116;2023-03-23T04:09:03;15.00;66.60
24164;DHT22;12319;49.204;8.116;2023-03-23T04:11:31;15.00;66.60
24164;DHT22;12319;49.204;8.116;2023-03-23T04:13:57;15.00;66.60
24164;DHT22;12319;49.204;8.116;2023-03-23T04:16:22;15.00;66.50
24164;DHT22;12319;49.204;8.116;2023-03-23T04:18:48;15.00;67.10
24164;DHT22;12319;49.204;8.116;2023-03-23T04:21:14;15.00;67.30
24164;DHT22;12319;49.204;8.116;2023-03-23T04:23:41;15.00;67.10
24164;DHT22;12319;49.204;8.116;2023-03-23T04:26:07;15.00;67.40
24164;DHT22;12319;49.204;8.116;2023-03-23T04:28:33;15.00;67.40
24164;DHT22;12319;49.204;8.116;2023-03-23T04:31:00;14.90;67.80
24164;DHT22;12319;49.204;8.116;2023-03-23T04:33:27;14.90;68.00
24164;DHT22;12319;49.204;8.116;2023-03-23T04:35:54;14.90;68.30
24164;DHT22;12319;49.204;8.116;2023-03-23T04:38:23;14.90;68.80
24164;DHT22;12319;49.204;8.116;2023-03-23T04:40:51;14.90;68.70
24164;DHT22;12319;49.204;8.116;2023-03-23T04:43:22;14.90;68.80
24164;DHT22;12319;49.204;8.116;2023-03-23T04:45:53;14.90;70.30
24164;DHT22;12319;49.204;8.116;2023-03-23T04:48:22;14.80;70.10
24164;DHT22;12319;49.204;8.116;2023-03-23T04:50:48;14.90;69.80
24164;DHT22;12319;49.204;8.116;2023-03-23T04:53:16;14.70;70.00
24164;DHT22;12319;49.204;8.116;2023-03-23T04:55:43;14.70;69.90
24164;DHT22;12319;49.204;8.116;2023-03-23T04:58:08;14.70;71.00
24164;DHT22;12319;49.204;8.116;2023-03-23T05:00:36;14.70;70.40
24164;DHT22;12319;49.204;8.116;2023-03-23T05:03:02;14.60;70.30
24164;DHT22;12319;49.204;8.116;2023-03-23T05:05:28;14.60;70.40
24164;DHT22;12319;49.204;8.116;2023-03-23T05:07:57;14.60;70.70
24164;DHT22;12319;49.204;8.116;2023-03-23T05:10:23;14.60;70.70
24164;DHT22;12319;49.204;8.116;2023-03-23T05:12:49;14.50;71.10
24164;DHT22;12319;49.204;8.116;2023-03-23T05:15:15;14.50;70.70
24164;DHT22;12319;49.204;8.116;2023-03-23T05:17:41;14.50;71.50
24164;DHT22;12319;49.204;8.116;2023-03-23T05:20:11;14.50;70.80
24164;DHT22;12319;49.204;8.116;2023-03-23T05:22:38;14.50;70.90
24164;DHT22;12319;49.204;8.116;2023-03-23T05:25:05;14.50;70.30
24164;DHT22;12319;49.204;8.116;2023-03-23T05:27:34;14.50;70.20
24164;DHT22;12319;49.204;8.116;2023-03-23T05:30:00;14.50;70.00
24164;DHT22;12319;49.204;8.116;2023-03-23T05:32:27;14.60;70.10
24164;DHT22;12319;49.204;8.116;2023-03-23T05:34:58;14.70;70.30
24164;DHT22;12319;49.204;8.116;2023-03-23T05:37:25;14.60;69.80
24164;DHT22;12319;49.204;8.116;2023-03-23T05:39:52;14.60;69.90
24164;DHT22;12319;49.204;8.116;2023-03-23T05:42:21;14.70;69.90
24164;DHT22;12319;49.204;8.116;2023-03-23T05:44:48;14.70;69.80
24164;DHT22;12319;49.204;8.116;2023-03-23T05:47:13;14.70;69.90
24164;DHT22;12319;49.204;8.116;2023-03-23T05:49:39;14.70;69.90
24164;DHT22;12319;49.204;8.116;2023-03-23T05:52:04;14.80;70.00
24164;DHT22;12319;49.204;8.116;2023-03-23T05:54:30;14.80;70.00
24164;DHT22;12319;49.204;8.116;2023-03-23T05:56:56;14.80;70.00
24164;DHT22;12319;49.204;8.116;2023-03-23T05:59:22;14.80;70.10
24164;DHT22;12319;49.204;8.116;2023-03-23T06:01:47;14.80;70.20
24164;DHT22;12319;49.204;8.116;2023-03-23T06:04:13;14.80;70.10
24164;DHT22;12319;49.204;8.116;2023-03-23T06:06:39;14.90;70.10
24164;DHT22;12319;49.204;8.116;2023-03-23T06:09:06;14.90;70.00
24164;DHT22;12319;49.204;8.116;2023-03-23T06:11:32;14.90;70.30
24164;DHT22;12319;49.204;8.116;2023-03-23T06:13:58;14.90;70.20
24164;DHT22;12319;49.204;8.116;2023-03-23T06:16:24;14.90;70.10
24164;DHT22;12319;49.204;8.116;2023-03-23T06:18:49;15.00;70.20
24164;DHT22;12319;49.204;8.116;2023-03-23T06:21:15;15.00;70.10
24164;DHT22;12319;49.204;8.116;2023-03-23T06:23:44;15.10;69.90
24164;DHT22;12319;49.204;8.116;2023-03-23T06:26:12;15.20;70.10
24164;DHT22;12319;49.204;8.116;2023-03-23T06:28:41;15.10;70.10
24164;DHT22;12319;49.204;8.116;2023-03-23T06:31:07;15.20;70.10
24164;DHT22;12319;49.204;8.116;2023-03-23T06:33:36;15.20;69.80
24164;DHT22;12319;49.204;8.116;2023-03-23T06:36:03;15.30;70.10
24164;DHT22;12319;49.204;8.116;2023-03-23T06:38:30;15.30;70.00
24164;DHT22;12319;49.204;8.116;2023-03-23T06:40:57;15.30;70.00
24164;DHT22;12319;49.204;8.116;2023-03-23T06:43:23;15.30;70.20
24164;DHT22;12319;49.204;8.116;2023-03-23T06:45:49;15.20;70.00
24164;DHT22;12319;49.204;8.116;2023-03-23T06:48:15;15.20;70.40
24164;DHT22;12319;49.204;8.116;2023-03-23T06:50:45;15.20;70.30
24164;DHT22;12319;49.204;8.116;2023-03-23T06:53:11;15.20;70.70
24164;DHT22;12319;49.204;8.116;2023-03-23T06:55:38;15.20;70.70
24164;DHT22;12319;49.204;8.116;2023-03-23T06:58:05;15.00;70.90
24164;DHT22;12319;49.204;8.116;2023-03-23T07:00:32;15.10;71.00
24164;DHT22;12319;49.204;8.116;2023-03-23T07:02:58;15.10;71.40
24164;DHT22;12319;49.204;8.116;2023-03-23T07:05:23;15.10;71.90
24164;DHT22;12319;49.204;8.116;2023-03-23T07:07:49;15.10;71.80
24164;DHT22;12319;49.204;8.116;2023-03-23T07:10:15;15.00;72.00
24164;DHT22;12319;49.204;8.116;2023-03-23T07:12:41;15.10;72.70
24164;DHT22;12319;49.204;8.116;2023-03-23T07:15:07;15.00;72.20
24164;DHT22;12319;49.204;8.116;2023-03-23T07:17:36;15.10;72.60
24164;DHT22;12319;49.204;8.116;2023-03-23T07:20:01;15.10;72.50
24164;DHT22;12319;49.204;8.116;2023-03-23T07:22:27;15.10;72.60
24164;DHT22;12319;49.204;8.116;2023-03-23T07:24:53;15.20;72.70
24164;DHT22;12319;49.204;8.116;2023-03-23T07:27:19;15.20;72.70
24164;DHT22;12319;49.204;8.116;2023-03-23T07:29:44;15.20;72.70
24164;DHT22;12319;49.204;8.116;2023-03-23T07:32:11;15.40;73.50
24164;DHT22;12319;49.204;8.116;2023-03-23T07:34:37;15.40;72.90
24164;DHT22;12319;49.204;8.116;2023-03-23T07:37:03;15.50;73.00
24164;DHT22;12319;49.204;8.116;2023-03-23T07:39:29;15.50;73.00
24164;DHT22;12319;49.204;8.116;2023-03-23T07:41:55;15.80;72.90
24164;DHT22;12319;49.204;8.116;2023-03-23T07:44:21;16.00;72.90
24164;DHT22;12319;49.204;8.116;2023-03-23T07:46:47;16.20;72.50
24164;DHT22;12319;49.204;8.116;2023-03-23T07:49:12;16.60;72.40
24164;DHT22;12319;49.204;8.116;2023-03-23T07:51:39;17.50;72.30
24164;DHT22;12319;49.204;8.116;2023-03-23T07:54:05;17.90;70.60
24164;DHT22;12319;49.204;8.116;2023-03-23T07:56:33;18.00;69.10
24164;DHT22;12319;49.204;8.116;2023-03-23T07:58:59;17.80;69.30
24164;DHT22;12319;49.204;8.116;2023-03-23T08:01:26;17.50;69.10
24164;DHT22;12319;49.204;8.116;2023-03-23T08:03:51;17.20;69.30
24164;DHT22;12319;49.204;8.116;2023-03-23T08:06:20;17.00;69.50
24164;DHT22;12319;49.204;8.116;2023-03-23T08:08:46;16.80;69.70
24164;DHT22;12319;49.204;8.116;2023-03-23T08:11:12;16.60;70.60
24164;DHT22;12319;49.204;8.116;2023-03-23T08:13:41;16.50;70.10
24164;DHT22;12319;49.204;8.116;2023-03-23T08:16:07;16.50;70.50
24164;DHT22;12319;49.204;8.116;2023-03-23T08:18:34;16.40;70.40
24164;DHT22;12319;49.204;8.116;2023-03-23T08:21:00;16.30;70.50
24164;DHT22;12319;49.204;8.116;2023-03-23T08:23:26;16.30;70.50
24164;DHT22;12319;49.204;8.116;2023-03-23T08:25:52;16.30;70.50
24164;DHT22;12319;49.204;8.116;2023-03-23T08:28:18;16.30;70.70
24164;DHT22;12319;49.204;8.116;2023-03-23T08:30:44;16.30;70.40
24164;DHT22;12319;49.204;8.116;2023-03-23T08:33:10;16.30;70.40
24164;DHT22;12319;49.204;8.116;2023-03-23T08:35:36;16.30;70.70
24164;DHT22;12319;49.204;8.116;2023-03-23T08:38:02;16.30;70.80
24164;DHT22;12319;49.204;8.116;2023-03-23T08:40:28;16.20;70.90
24164;DHT22;12319;49.204;8.116;2023-03-23T08:42:55;16.20;70.90
24164;DHT22;12319;49.204;8.116;2023-03-23T08:45:23;16.20;70.80
24164;DHT22;12319;49.204;8.116;2023-03-23T08:47:50;16.10;71.30
24164;DHT22;12319;49.204;8.116;2023-03-23T08:50:21;16.10;71.20
24164;DHT22;12319;49.204;8.116;2023-03-23T08:52:48;16.00;71.20
24164;DHT22;12319;49.204;8.116;2023-03-23T08:55:15;16.00;71.30
24164;DHT22;12319;49.204;8.116;2023-03-23T08:57:43;16.00;72.00
24164;DHT22;12319;49.204;8.116;2023-03-23T09:00:12;16.00;71.50
24164;DHT22;12319;49.204;8.116;2023-03-23T09:02:45;16.00;71.70
24164;DHT22;12319;49.204;8.116;2023-03-23T09:05:11;16.00;71.40
24164;DHT22;12319;49.204;8.116;2023-03-23T09:07:41;16.10;71.30
24164;DHT22;12319;49.204;8.116;2023-03-23T09:10:08;16.10;71.80
24164;DHT22;12319;49.204;8.116;2023-03-23T09:12:35;16.20;72.10
24164;DHT22;12319;49.204;8.116;2023-03-23T09:15:02;16.10;72.00
24164;DHT22;12319;49.204;8.116;2023-03-23T09:17:37;16.20;72.30
24164;DHT22;12319;49.204;8.116;2023-03-23T09:20:03;16.10;73.00
24164;DHT22;12319;49.204;8.116;2023-03-23T09:22:35;16.10;73.00
24164;DHT22;12319;49.204;8.116;2023-03-23T09:25:01;16.10;73.50
24164;DHT22;12319;49.204;8.116;2023-03-23T09:27:27;16.00;73.50
24164;DHT22;12319;49.204;8.116;2023-03-23T09:29:52;16.00;74.20
24164;DHT22;12319;49.204;8.116;2023-03-23T09:32:18;16.10;74.40
24164;DHT22;12319;49.204;8.116;2023-03-23T09:34:45;16.30;74.20
24164;DHT22;12319;49.204;8.116;2023-03-23T09:37:10;16.50;74.80
24164;DHT22;12319;49.204;8.116;2023-03-23T09:39:38;16.80;74.20
24164;DHT22;12319;49.204;8.116;2023-03-23T09:42:16;17.10;74.50
24164;DHT22;12319;49.204;8.116;2023-03-23T09:50:25;17.50;73.70
24164;DHT22;12319;49.204;8.116;2023-03-23T09:53:53;17.50;74.00
24164;DHT22;12319;49.204;8.116;2023-03-23T09:55:47;17.60;73.30
24164;DHT22;12319;49.204;8.116;2023-03-23T10:01:34;17.60;73.30
24164;DHT22;12319;49.204;8.116;2023-03-23T10:04:15;17.60;72.70
24164;DHT22;12319;49.204;8.116;2023-03-23T10:06:43;17.40;72.90
24164;DHT22;12319;49.204;8.116;2023-03-23T10:09:15;17.40;73.30
24164;DHT22;12319;49.204;8.116;2023-03-23T10:17:17;17.00;74.70
24164;DHT22;12319;49.204;8.116;2023-03-23T10:20:01;16.90;74.30
24164;DHT22;12319;49.204;8.116;2023-03-23T10:22:40;16.80;75.40
24164;DHT22;12319;49.204;8.116;2023-03-23T10:27:47;16.60;75.20
24164;DHT22;12319;49.204;8.116;2023-03-23T10:30:22;16.60;75.30
24164;DHT22;12319;49.204;8.116;2023-03-23T10:33:04;16.50;78.10
24164;DHT22;12319;49.204;8.116;2023-03-23T10:35:40;16.50;77.10
24164;DHT22;12319;49.204;8.116;2023-03-23T10:38:23;16.50;77.70
24164;DHT22;12319;49.204;8.116;2023-03-23T10:40:56;16.60;77.90
24164;DHT22;12319;49.204;8.116;2023-03-23T10:43:23;16.70;78.00
24164;DHT22;12319;49.204;8.116;2023-03-23T10:47:09;16.60;77.70
24164;DHT22;12319;49.204;8.116;2023-03-23T10:49:07;16.60;76.90
24164;DHT22;12319;49.204;8.116;2023-03-23T10:51:39;16.60;77.90
24164;DHT22;12319;49.204;8.116;2023-03-23T10:54:06;16.60;78.70
24164;DHT22;12319;49.204;8.116;2023-03-23T10:56:40;16.70;78.70
24164;DHT22;12319;49.204;8.116;2023-03-23T10:59:13;16.80;77.80
24164;DHT22;12319;49.204;8.116;2023-03-23T11:01:43;16.90;77.30
24164;DHT22;12319;49.204;8.116;2023-03-23T11:04:13;17.00;77.20
24164;DHT22;12319;49.204;8.116;2023-03-23T11:06:45;17.10;77.50
24164;DHT22;12319;49.204;8.116;2023-03-23T11:09:15;17.20;76.90
24164;DHT22;12319;49.204;8.116;2023-03-23T11:11:53;17.30;76.90
24164;DHT22;12319;49.204;8.116;2023-03-23T11:14:26;17.40;76.60
24164;DHT22;12319;49.204;8.116;2023-03-23T11:17:02;17.60;76.60
24164;DHT22;12319;49.204;8.116;2023-03-23T11:19:33;17.80;76.00
24164;DHT22;12319;49.204;8.116;2023-03-23T11:24:43;18.00;75.30
24164;DHT22;12319;49.204;8.116;2023-03-23T11:27:10;18.20;74.70
24164;DHT22;12319;49.204;8.116;2023-03-23T11:29:58;18.30;74.90
24164;DHT22;12319;49.204;8.116;2023-03-23T11:32:30;18.50;74.80
24164;DHT22;12319;49.204;8.116;2023-03-23T11:35:00;18.60;74.00
24164;DHT22;12319;49.204;8.116;2023-03-23T11:37:32;18.60;73.70
24164;DHT22;12319;49.204;8.116;2023-03-23T11:40:01;18.50;72.30
24164;DHT22;12319;49.204;8.116;2023-03-23T11:42:42;18.40;73.30
24164;DHT22;12319;49.204;8.116;2023-03-23T11:50:55;18.20;73.40
24164;DHT22;12319;49.204;8.116;2023-03-23T11:53:36;18.20;73.20
24164;DHT22;12319;49.204;8.116;2023-03-23T11:56:23;18.20;72.70
24164;DHT22;12319;49.204;8.116;2023-03-23T11:58:51;18.30;72.30
24164;DHT22;12319;49.204;8.116;2023-03-23T12:15:34;18.30;71.00
24164;DHT22;12319;49.204;8.116;2023-03-23T12:18:19;18.10;71.00
24164;DHT22;12319;49.204;8.116;2023-03-23T12:23:44;17.80;71.40
24164;DHT22;12319;49.204;8.116;2023-03-23T12:26:47;17.70;71.00
24164;DHT22;12319;49.204;8.116;2023-03-23T12:38:41;17.50;71.20
24164;DHT22;12319;49.204;8.116;2023-03-23T12:40:49;17.60;71.10
24164;DHT22;12319;49.204;8.116;2023-03-23T12:48:56;17.60;70.70
24164;DHT22;12319;49.204;8.116;2023-03-23T12:51:31;17.50;70.40
24164;DHT22;12319;49.204;8.116;2023-03-23T12:54:15;17.50;70.50
24164;DHT22;12319;49.204;8.116;2023-03-23T12:56:51;17.30;70.70
24164;DHT22;12319;49.204;8.116;2023-03-23T12:59:39;17.20;70.90
24164;DHT22;12319;49.204;8.116;2023-03-23T13:02:19;17.10;70.80
24164;DHT22;12319;49.204;8.116;2023-03-23T13:05:05;17.20;71.20
24164;DHT22;12319;49.204;8.116;2023-03-23T13:07:56;17.30;70.90
24164;DHT22;12319;49.204;8.116;2023-03-23T13:10:29;17.40;70.80
24164;DHT22;12319;49.204;8.116;2023-03-23T13:12:56;17.50;70.90
24164;DHT22;12319;49.204;8.116;2023-03-23T13:15:41;17.70;70.60
24164;DHT22;12319;49.204;8.116;2023-03-23T13:18:24;17.80;70.70
24164;DHT22;12319;49.204;8.116;2023-03-23T13:23:30;17.80;70.20
24164;DHT22;12319;49.204;8.116;2023-03-23T13:26:05;17.80;70.30
24164;DHT22;12319;49.204;8.116;2023-03-23T13:28:48;17.70;70.50
24164;DHT22;12319;49.204;8.116;2023-03-23T13:31:17;17.70;70.70
24164;DHT22;12319;49.204;8.116;2023-03-23T13:33:50;17.50;70.70
24164;DHT22;12319;49.204;8.116;2023-03-23T13:36:26;17.60;71.00
24164;DHT22;12319;49.204;8.116;2023-03-23T13:38:52;17.50;71.40
24164;DHT22;12319;49.204;8.116;2023-03-23T13:41:19;17.40;71.30
24164;DHT22;12319;49.204;8.116;2023-03-23T13:43:47;17.30;71.40
24164;DHT22;12319;49.204;8.116;2023-03-23T13:46:26;17.20;71.60
24164;DHT22;12319;49.204;8.116;2023-03-23T13:49:16;17.20;71.90
24164;DHT22;12319;49.204;8.116;2023-03-23T13:56:59;16.90;71.90
24164;DHT22;12319;49.204;8.116;2023-03-23T14:01:53;16.70;72.30
24164;DHT22;12319;49.204;8.116;2023-03-23T14:04:19;16.60;72.50
24164;DHT22;12319;49.204;8.116;2023-03-23T14:06:48;16.60;72.40
24164;DHT22;12319;49.204;8.116;2023-03-23T14:09:21;16.50;73.00
24164;DHT22;12319;49.204;8.116;2023-03-23T14:12:03;16.50;72.90
24164;DHT22;12319;49.204;8.116;2023-03-23T14:14:43;16.50;72.90
24164;DHT22;12319;49.204;8.116;2023-03-23T14:19:40;16.50;73.20
24164;DHT22;12319;49.204;8.116;2023-03-23T14:22:22;16.50;73.30
24164;DHT22;12319;49.204;8.116;2023-03-23T14:24:48;16.50;73.30
24164;DHT22;12319;49.204;8.116;2023-03-23T14:27:22;16.50;73.30
24164;DHT22;12319;49.204;8.116;2023-03-23T14:30:07;16.50;73.40
24164;DHT22;12319;49.204;8.116;2023-03-23T14:32:33;16.50;73.40
24164;DHT22;12319;49.204;8.116;2023-03-23T14:35:05;16.50;73.40
24164;DHT22;12319;49.204;8.116;2023-03-23T14:37:32;16.50;73.30
24164;DHT22;12319;49.204;8.116;2023-03-23T14:39:58;16.50;73.20
24164;DHT22;12319;49.204;8.116;2023-03-23T14:42:29;16.50;73.30
24164;DHT22;12319;49.204;8.116;2023-03-23T14:44:57;16.60;73.40
24164;DHT22;12319;49.204;8.116;2023-03-23T14:49:56;16.60;73.30
24164;DHT22;12319;49.204;8.116;2023-03-23T14:52:26;16.60;73.30
24164;DHT22;12319;49.204;8.116;2023-03-23T14:54:52;16.70;73.40
24164;DHT22;12319;49.204;8.116;2023-03-23T14:57:25;16.70;73.40
24164;DHT22;12319;49.204;8.116;2023-03-23T14:59:52;16.70;73.40
24164;DHT22;12319;49.204;8.116;2023-03-23T15:04:59;17.00;73.40
24164;DHT22;12319;49.204;8.116;2023-03-23T15:07:30;17.10;73.30
24164;DHT22;12319;49.204;8.116;2023-03-23T15:09:57;17.10;73.00
24164;DHT22;12319;49.204;8.116;2023-03-23T15:12:26;17.20;73.10
24164;DHT22;12319;49.204;8.116;2023-03-23T15:14:58;17.20;72.90
24164;DHT22;12319;49.204;8.116;2023-03-23T15:17:26;17.30;72.90
24164;DHT22;12319;49.204;8.116;2023-03-23T15:19:53;17.40;73.00
24164;DHT22;12319;49.204;8.116;2023-03-23T15:22:25;17.40;73.10
24164;DHT22;12319;49.204;8.116;2023-03-23T15:24:53;17.40;72.90
24164;DHT22;12319;49.204;8.116;2023-03-23T15:27:33;17.50;73.00
24164;DHT22;12319;49.204;8.116;2023-03-23T15:30:31;17.40;72.90
24164;DHT22;12319;49.204;8.116;2023-03-23T15:33:13;17.40;72.90
24164;DHT22;12319;49.204;8.116;2023-03-23T15:35:45;17.40;73.30
24164;DHT22;12319;49.204;8.116;2023-03-23T15:38:18;17.30;73.40
24164;DHT22;12319;49.204;8.116;2023-03-23T15:40:48;17.20;73.60
24164;DHT22;12319;49.204;8.116;2023-03-23T15:46:05;17.20;74.60
24164;DHT22;12319;49.204;8.116;2023-03-23T15:51:23;17.10;74.50
24164;DHT22;12319;49.204;8.116;2023-03-23T15:53:50;17.10;74.50
24164;DHT22;12319;49.204;8.116;2023-03-23T15:56:16;17.10;74.60
24164;DHT22;12319;49.204;8.116;2023-03-23T15:58:42;17.10;74.60
24164;DHT22;12319;49.204;8.116;2023-03-23T16:01:13;17.10;75.00
24164;DHT22;12319;49.204;8.116;2023-03-23T16:03:41;17.10;75.10
24164;DHT22;12319;49.204;8.116;2023-03-23T16:06:11;16.90;75.10
24164;DHT22;12319;49.204;8.116;2023-03-23T16:08:37;17.00;75.30
24164;DHT22;12319;49.204;8.116;2023-03-23T16:11:09;17.00;75.40
24164;DHT22;12319;49.204;8.116;2023-03-23T16:13:35;17.00;75.50
24164;DHT22;12319;49.204;8.116;2023-03-23T16:16:01;17.00;75.70
24164;DHT22;12319;49.204;8.116;2023-03-23T16:18:27;17.00;75.90
24164;DHT22;12319;49.204;8.116;2023-03-23T16:20:53;16.90;75.90
24164;DHT22;12319;49.204;8.116;2023-03-23T16:23:18;16.90;76.10
24164;DHT22;12319;49.204;8.116;2023-03-23T16:25:44;16.80;76.00
24164;DHT22;12319;49.204;8.116;2023-03-23T16:28:13;16.80;76.40
24164;DHT22;12319;49.204;8.116;2023-03-23T16:30:42;16.80;76.50
24164;DHT22;12319;49.204;8.116;2023-03-23T16:33:07;16.70;77.10
24164;DHT22;12319;49.204;8.116;2023-03-23T16:35:34;16.70;76.70
24164;DHT22;12319;49.204;8.116;2023-03-23T16:38:00;16.70;77.10
24164;DHT22;12319;49.204;8.116;2023-03-23T16:40:26;16.70;76.80
24164;DHT22;12319;49.204;8.116;2023-03-23T16:42:52;16.70;77.00
24164;DHT22;12319;49.204;8.116;2023-03-23T16:45:18;16.80;77.00
24164;DHT22;12319;49.204;8.116;2023-03-23T16:47:44;16.70;77.00
24164;DHT22;12319;49.204;8.116;2023-03-23T16:50:13;16.70;77.10
24164;DHT22;12319;49.204;8.116;2023-03-23T16:52:42;16.70;77.40
24164;DHT22;12319;49.204;8.116;2023-03-23T16:55:10;16.70;77.30
24164;DHT22;12319;49.204;8.116;2023-03-23T16:57:37;16.60;77.20
24164;DHT22;12319;49.204;8.116;2023-03-23T17:00:05;16.60;77.40
24164;DHT22;12319;49.204;8.116;2023-03-23T17:02:32;16.50;77.50
24164;DHT22;12319;49.204;8.116;2023-03-23T17:04:57;16.50;77.70
24164;DHT22;12319;49.204;8.116;2023-03-23T17:07:23;16.40;77.70
24164;DHT22;12319;49.204;8.116;2023-03-23T17:09:49;16.40;77.90
24164;DHT22;12319;49.204;8.116;2023-03-23T17:12:15;16.40;78.00
24164;DHT22;12319;49.204;8.116;2023-03-23T17:14:41;16.30;78.10
24164;DHT22;12319;49.204;8.116;2023-03-23T17:17:07;16.40;78.00
24164;DHT22;12319;49.204;8.116;2023-03-23T17:19:32;16.30;78.00
24164;DHT22;12319;49.204;8.116;2023-03-23T17:21:58;16.30;78.20
24164;DHT22;12319;49.204;8.116;2023-03-23T17:24:24;16.20;78.20